createdAt,value
2018-01-25T00:02:19.000Z,23.48
2018-01-25T00:12:19.000Z,23.4
2018-01-25T00:22:19.000Z,23.38
2018-01-25T00:32:19.000Z,23.29
2018-01-25T00:42:19.000Z,23.24
2018-01-25T00:52:19.000Z,23.12
2018-01-25T01:02:19.000Z,23.1
2018-01-25T01:12:19.000Z,23.02
2018-01-25T01:22:19.000Z,22.95
2018-01-25T01:32:19.000Z,22.91
2018-01-25T01:42:19.000Z,22.79
2018-01-25T01:52:19.000Z,22.78
2018-01-25T02:02:19.000Z,22.69
2018-01-25T02:12:19.000Z,22.63
2018-01-25T02:22:22.000Z,22.58
2018-01-25T02:32:19.000Z,22.58
2018-01-25T02:42:19.000Z,22.45
2018-01-25T02:52:19.000Z,22.43
2018-01-25T03:02:19.000Z,22.36
2018-01-25T03:12:19.000Z,22.34
2018-01-25T03:22:19.000Z,22.3
2018-01-25T03:32:19.000Z,22.27
2018-01-25T03:42:19.000Z,22.18
2018-01-25T03:52:19.000Z,22.19
2018-01-25T04:02:19.000Z,22.18
2018-01-25T04:12:19.000Z,22.12
2018-01-25T04:22:19.000Z,22.04
2018-01-25T04:32:19.000Z,21.98
2018-01-25T04:42:19.000Z,22.03
2018-01-25T04:52:19.000Z,21.97
2018-01-25T05:02:19.000Z,21.9
2018-01-25T05:12:19.000Z,21.85
2018-01-25T05:22:19.000Z,21.85
2018-01-25T05:32:19.000Z,21.85
2018-01-25T05:42:19.000Z,21.86
2018-01-25T05:52:19.000Z,21.92
2018-01-25T06:02:19.000Z,21.93
2018-01-25T06:12:19.000Z,21.94
2018-01-25T06:22:19.000Z,21.95
2018-01-25T06:32:19.000Z,22.02
2018-01-25T06:42:19.000Z,22.04
2018-01-25T06:52:19.000Z,22.07
2018-01-25T07:02:19.000Z,22.1
2018-01-25T07:12:19.000Z,22.13
2018-01-25T07:22:19.000Z,22.14
2018-01-25T07:32:19.000Z,22.16
2018-01-25T07:42:19.000Z,22.14
2018-01-25T07:52:19.000Z,22.18
2018-01-25T08:02:19.000Z,22.23
2018-01-25T08:12:19.000Z,22.24
2018-01-25T08:22:20.000Z,22.3
2018-01-25T08:32:20.000Z,22.32
2018-01-25T08:42:20.000Z,22.4
2018-01-25T08:52:20.000Z,22.44
2018-01-25T09:02:20.000Z,22.46
2018-01-25T09:12:24.000Z,22.49
2018-01-25T09:22:20.000Z,22.54
2018-01-25T09:32:20.000Z,22.61
2018-01-25T09:42:20.000Z,22.65
2018-01-25T09:52:20.000Z,22.67
2018-01-25T10:02:20.000Z,22.71
2018-01-25T10:12:20.000Z,22.73
2018-01-25T10:22:20.000Z,22.79
2018-01-25T10:32:20.000Z,22.83
2018-01-25T10:42:20.000Z,22.89
2018-01-25T10:52:20.000Z,22.97
2018-01-25T11:02:20.000Z,23.05
2018-01-25T11:12:20.000Z,23.06
2018-01-25T11:22:20.000Z,23.23
2018-01-25T11:32:20.000Z,23.24
2018-01-25T11:42:20.000Z,23.33
2018-01-25T11:52:20.000Z,23.35
2018-01-25T12:02:21.000Z,23.38
2018-01-25T12:12:21.000Z,23.5
2018-01-25T12:22:20.000Z,23.51
2018-01-25T12:32:20.000Z,23.48
2018-01-25T12:42:20.000Z,23.54
2018-01-25T12:52:20.000Z,23.49
2018-01-25T13:02:20.000Z,23.49
2018-01-25T13:12:20.000Z,23.54
2018-01-25T13:22:20.000Z,23.56
2018-01-25T13:32:20.000Z,23.6
2018-01-25T13:42:20.000Z,23.69
2018-01-25T13:52:20.000Z,23.64
2018-01-25T14:02:20.000Z,23.61
2018-01-25T14:12:20.000Z,23.65
2018-01-25T14:22:20.000Z,23.68
2018-01-25T14:42:20.000Z,23.67
2018-01-25T14:52:20.000Z,23.64
2018-01-25T15:02:20.000Z,23.67
2018-01-25T15:12:20.000Z,23.69
2018-01-25T15:22:20.000Z,23.69
2018-01-25T15:32:20.000Z,23.69
2018-01-25T15:42:20.000Z,23.65
2018-01-25T15:52:20.000Z,23.72
2018-01-25T16:02:20.000Z,23.68
2018-01-25T16:12:20.000Z,23.7
2018-01-25T16:22:20.000Z,23.72
2018-01-25T16:32:20.000Z,23.76
2018-01-25T16:42:21.000Z,23.79
2018-01-25T16:52:21.000Z,23.78
2018-01-25T17:02:21.000Z,23.83
2018-01-25T17:12:21.000Z,23.79
2018-01-25T17:22:22.000Z,23.76
2018-01-25T17:32:21.000Z,23.79
2018-01-25T17:42:21.000Z,23.8
2018-01-25T17:52:21.000Z,23.89
2018-01-25T18:02:21.000Z,23.8
2018-01-25T18:12:21.000Z,23.84
2018-01-25T18:22:21.000Z,23.78
2018-01-25T18:32:21.000Z,23.79
2018-01-25T18:42:21.000Z,23.8
2018-01-25T18:52:21.000Z,23.78
2018-01-25T19:02:21.000Z,23.78
2018-01-25T19:12:21.000Z,23.77
2018-01-25T19:22:21.000Z,23.78
2018-01-25T19:32:21.000Z,23.76
2018-01-25T19:42:21.000Z,23.73
2018-01-25T19:52:21.000Z,23.68
2018-01-25T20:02:21.000Z,23.76
2018-01-25T20:12:21.000Z,23.78
2018-01-25T20:22:21.000Z,23.84
2018-01-25T20:32:24.000Z,23.86
2018-01-25T20:42:21.000Z,23.9
2018-01-25T20:52:21.000Z,23.93
2018-01-25T21:02:21.000Z,23.93
2018-01-25T21:12:21.000Z,23.95
2018-01-25T21:22:21.000Z,23.97
2018-01-25T21:32:21.000Z,23.98
2018-01-25T21:42:21.000Z,23.98
2018-01-25T21:52:21.000Z,23.98
2018-01-25T22:02:21.000Z,24.02
2018-01-25T22:12:21.000Z,24.03
2018-01-25T22:22:21.000Z,24.03
2018-01-25T22:32:21.000Z,24.03
2018-01-25T22:42:21.000Z,24.05
2018-01-25T22:52:21.000Z,24.01
2018-01-25T23:02:21.000Z,24
2018-01-25T23:12:21.000Z,23.96
2018-01-25T23:22:21.000Z,23.96
2018-01-25T23:32:21.000Z,23.91
2018-01-25T23:42:21.000Z,23.78
2018-01-25T23:52:21.000Z,23.69
